DCS642 EHRD-EKCH
Flight info
| Callsign | DCS642 |
|---|---|
| Flight time | 0h 57m |
| Altitude | 45000 |
| Route | ANDIK N873 JUIST DCT DOSUR P729 TALSA/N0485F390 P729 TUDLO |
| Aircraft | C750/M-SBDE3FGHRWXY/S |
Departure
| Time | 2026-04-24 10:43 |
|---|---|
| Airport | Rotterdam The Hague Airport (EHRD) |
Arrival
| Time | 2026-04-24 11:40 |
|---|---|
| Airport | Copenhagen Kastrup Airport (EKCH) |
| Time | Latitude | Longitude | Altitude | Speed | Heading |
|---|---|---|---|---|---|
| 2026-04-24 10:26 | 51.94971 | 4.44117 | -3 ft | 0 kts | 183° |
| 2026-04-24 10:37 | 51.94966 | 4.44111 | -3 ft | 3 kts | 220° |
| 2026-04-24 10:38 | 51.94954 | 4.44061 | -3 ft | 6 kts | 281° |
| 2026-04-24 10:38 | 51.95001 | 4.44000 | -3 ft | 12 kts | 326° |
| 2026-04-24 10:38 | 51.95067 | 4.43924 | -3 ft | 9 kts | 303° |
| 2026-04-24 10:38 | 51.95043 | 4.43841 | -3 ft | 11 kts | 234° |
| 2026-04-24 10:39 | 51.95022 | 4.43740 | -3 ft | 6 kts | 316° |
| 2026-04-24 10:39 | 51.95076 | 4.43686 | -3 ft | 11 kts | 326° |
| 2026-04-24 10:39 | 51.95157 | 4.43601 | -3 ft | 16 kts | 328° |
| 2026-04-24 10:39 | 51.95259 | 4.43492 | -3 ft | 14 kts | 306° |
| 2026-04-24 10:40 | 51.95229 | 4.43369 | -3 ft | 14 kts | 236° |
| 2026-04-24 10:40 | 51.95185 | 4.43262 | -3 ft | 6 kts | 234° |
| 2026-04-24 10:40 | 51.95176 | 4.43241 | -3 ft | 6 kts | 240° |
| 2026-04-24 10:40 | 51.95150 | 4.43138 | -3 ft | 12 kts | 281° |
| 2026-04-24 10:41 | 51.95247 | 4.43104 | -2 ft | 19 kts | 0° |
| 2026-04-24 10:41 | 51.95331 | 4.43125 | -2 ft | 8 kts | 54° |
| 2026-04-24 10:41 | 51.95334 | 4.43134 | -2 ft | 0 kts | 59° |
| 2026-04-24 10:42 | 51.95479 | 4.43494 | -4 ft | 96 kts | 57° |
| 2026-04-24 10:42 | 51.95958 | 4.44731 | 250 ft | 142 kts | 56° |
| 2026-04-24 10:43 | 51.96495 | 4.46190 | 881 ft | 157 kts | 56° |
| 2026-04-24 10:43 | 51.97021 | 4.47760 | 1656 ft | 163 kts | 59° |
| 2026-04-24 10:43 | 51.97573 | 4.49417 | 2531 ft | 170 kts | 58° |
| 2026-04-24 10:43 | 51.98145 | 4.51131 | 3507 ft | 176 kts | 58° |
| 2026-04-24 10:44 | 51.98740 | 4.52926 | 4314 ft | 189 kts | 59° |
| 2026-04-24 10:44 | 51.99393 | 4.54889 | 4967 ft | 207 kts | 59° |
| 2026-04-24 10:44 | 52.00173 | 4.56975 | 5583 ft | 226 kts | 48° |
| 2026-04-24 10:44 | 52.01563 | 4.58441 | 5977 ft | 254 kts | 24° |
| 2026-04-24 10:45 | 52.03214 | 4.59586 | 6887 ft | 258 kts | 23° |
| 2026-04-24 10:45 | 52.04853 | 4.60837 | 7831 ft | 264 kts | 30° |
| 2026-04-24 10:45 | 52.06188 | 4.62863 | 8840 ft | 268 kts | 46° |
| 2026-04-24 10:45 | 52.07475 | 4.65092 | 9842 ft | 274 kts | 45° |
| 2026-04-24 10:46 | 52.08827 | 4.67331 | 10621 ft | 282 kts | 44° |
| 2026-04-24 10:46 | 52.10259 | 4.69715 | 10892 ft | 308 kts | 45° |
| 2026-04-24 10:46 | 52.11811 | 4.72344 | 11007 ft | 336 kts | 45° |
| 2026-04-24 10:46 | 52.13460 | 4.75146 | 11537 ft | 343 kts | 45° |
| 2026-04-24 10:47 | 52.15119 | 4.77950 | 12304 ft | 347 kts | 45° |
| 2026-04-24 10:47 | 52.16811 | 4.80808 | 12912 ft | 353 kts | 45° |
| 2026-04-24 10:47 | 52.18518 | 4.83702 | 13595 ft | 356 kts | 45° |
| 2026-04-24 10:47 | 52.20248 | 4.86644 | 14171 ft | 363 kts | 45° |
| 2026-04-24 10:48 | 52.21980 | 4.89587 | 14753 ft | 366 kts | 45° |
| 2026-04-24 10:48 | 52.23753 | 4.92602 | 15309 ft | 371 kts | 45° |
| 2026-04-24 10:48 | 52.25544 | 4.95655 | 15887 ft | 374 kts | 45° |
| 2026-04-24 10:48 | 52.27352 | 4.98739 | 16450 ft | 378 kts | 45° |
| 2026-04-24 10:49 | 52.29183 | 5.01867 | 17047 ft | 383 kts | 45° |
| 2026-04-24 10:49 | 52.31033 | 5.05031 | 17678 ft | 388 kts | 45° |
| 2026-04-24 10:49 | 52.33000 | 5.08068 | 18219 ft | 392 kts | 35° |
| 2026-04-24 10:49 | 52.35442 | 5.10052 | 18817 ft | 394 kts | 18° |
| 2026-04-24 10:50 | 52.38087 | 5.11286 | 19400 ft | 397 kts | 13° |
| 2026-04-24 10:50 | 52.40783 | 5.12415 | 19973 ft | 403 kts | 13° |
| 2026-04-24 10:50 | 52.43517 | 5.13582 | 20609 ft | 407 kts | 13° |
| 2026-04-24 10:50 | 52.46224 | 5.14794 | 21201 ft | 412 kts | 14° |
| 2026-04-24 10:51 | 52.49008 | 5.16038 | 21761 ft | 417 kts | 14° |
| 2026-04-24 10:51 | 52.51827 | 5.17267 | 22350 ft | 421 kts | 13° |
| 2026-04-24 10:51 | 52.54677 | 5.18509 | 22904 ft | 426 kts | 13° |
| 2026-04-24 10:51 | 52.57554 | 5.19783 | 23459 ft | 431 kts | 13° |
| 2026-04-24 10:52 | 52.60465 | 5.21076 | 23983 ft | 436 kts | 13° |
| 2026-04-24 10:52 | 52.63409 | 5.22376 | 24462 ft | 440 kts | 13° |
| 2026-04-24 10:52 | 52.66373 | 5.23685 | 24966 ft | 443 kts | 13° |
| 2026-04-24 10:52 | 52.69342 | 5.25062 | 25446 ft | 446 kts | 16° |
| 2026-04-24 10:53 | 52.72154 | 5.27140 | 25875 ft | 452 kts | 27° |
| 2026-04-24 10:53 | 52.74775 | 5.30046 | 26354 ft | 457 kts | 38° |
| 2026-04-24 10:53 | 52.77071 | 5.33703 | 26826 ft | 461 kts | 49° |
| 2026-04-24 10:53 | 52.79072 | 5.37872 | 27282 ft | 465 kts | 52° |
| 2026-04-24 10:54 | 52.81060 | 5.42103 | 27744 ft | 468 kts | 52° |
| 2026-04-24 10:54 | 52.83075 | 5.46373 | 28224 ft | 472 kts | 52° |
| 2026-04-24 10:54 | 52.85102 | 5.50680 | 28708 ft | 476 kts | 52° |
| 2026-04-24 10:54 | 52.87136 | 5.55024 | 29198 ft | 480 kts | 52° |
| 2026-04-24 10:55 | 52.89189 | 5.59416 | 29722 ft | 483 kts | 52° |
| 2026-04-24 10:55 | 52.91221 | 5.63762 | 30230 ft | 486 kts | 52° |
| 2026-04-24 10:55 | 52.93297 | 5.68207 | 30613 ft | 490 kts | 52° |
| 2026-04-24 10:55 | 52.95386 | 5.72694 | 30962 ft | 493 kts | 52° |
| 2026-04-24 10:56 | 52.97489 | 5.77219 | 31334 ft | 496 kts | 52° |
| 2026-04-24 10:56 | 52.99595 | 5.81757 | 31891 ft | 495 kts | 52° |
| 2026-04-24 10:56 | 53.01694 | 5.86286 | 32378 ft | 495 kts | 52° |
| 2026-04-24 10:56 | 53.03795 | 5.90831 | 32884 ft | 496 kts | 52° |
| 2026-04-24 10:57 | 53.05185 | 5.93843 | 33247 ft | 496 kts | 52° |
| 2026-04-24 10:57 | 53.07966 | 5.99877 | 33971 ft | 497 kts | 53° |
| 2026-04-24 10:57 | 53.10070 | 6.04452 | 34483 ft | 498 kts | 53° |
| 2026-04-24 10:57 | 53.12167 | 6.09022 | 35005 ft | 497 kts | 53° |
| 2026-04-24 10:58 | 53.14261 | 6.13591 | 35512 ft | 496 kts | 52° |
| 2026-04-24 10:58 | 53.16348 | 6.18157 | 36007 ft | 495 kts | 52° |
| 2026-04-24 10:58 | 53.17727 | 6.21177 | 36325 ft | 495 kts | 52° |
| 2026-04-24 10:58 | 53.19811 | 6.25748 | 36856 ft | 494 kts | 52° |
| 2026-04-24 10:59 | 53.21888 | 6.30311 | 37406 ft | 493 kts | 52° |
| 2026-04-24 10:59 | 53.24630 | 6.36349 | 38087 ft | 493 kts | 52° |
| 2026-04-24 10:59 | 53.26693 | 6.40902 | 38639 ft | 492 kts | 52° |
| 2026-04-24 10:59 | 53.28756 | 6.45462 | 39106 ft | 491 kts | 52° |
| 2026-04-24 11:00 | 53.30813 | 6.50016 | 39526 ft | 490 kts | 52° |
| 2026-04-24 11:00 | 53.32169 | 6.53024 | 39838 ft | 489 kts | 52° |
| 2026-04-24 11:00 | 53.34221 | 6.57548 | 40309 ft | 486 kts | 51° |
| 2026-04-24 11:00 | 53.36512 | 6.61678 | 40766 ft | 483 kts | 42° |
| 2026-04-24 11:01 | 53.39003 | 6.65434 | 41287 ft | 480 kts | 39° |
| 2026-04-24 11:01 | 53.41518 | 6.69096 | 41830 ft | 477 kts | 40° |
| 2026-04-24 11:01 | 53.43952 | 6.72854 | 42377 ft | 475 kts | 42° |
| 2026-04-24 11:01 | 53.46340 | 6.76668 | 42933 ft | 472 kts | 42° |
| 2026-04-24 11:02 | 53.48744 | 6.80397 | 43457 ft | 470 kts | 40° |
| 2026-04-24 11:02 | 53.51165 | 6.84066 | 43940 ft | 468 kts | 40° |
| 2026-04-24 11:02 | 53.53531 | 6.87707 | 44384 ft | 467 kts | 41° |
| 2026-04-24 11:02 | 53.55899 | 6.91426 | 44882 ft | 465 kts | 41° |
| 2026-04-24 11:03 | 53.58198 | 6.95240 | 45303 ft | 463 kts | 43° |
| 2026-04-24 11:03 | 53.62846 | 7.03019 | 45287 ft | 479 kts | 43° |
| 2026-04-24 11:04 | 53.67624 | 7.11074 | 45284 ft | 492 kts | 43° |
| 2026-04-24 11:04 | 53.72525 | 7.19353 | 45286 ft | 504 kts | 43° |
| 2026-04-24 11:05 | 53.77463 | 7.27729 | 45292 ft | 507 kts | 43° |
| 2026-04-24 11:05 | 53.82421 | 7.36169 | 45274 ft | 505 kts | 43° |
| 2026-04-24 11:06 | 53.87371 | 7.44618 | 45275 ft | 505 kts | 43° |
| 2026-04-24 11:06 | 53.92315 | 7.53096 | 45274 ft | 505 kts | 43° |
| 2026-04-24 11:07 | 53.99688 | 7.65789 | 45267 ft | 505 kts | 43° |
| 2026-04-24 11:07 | 54.04614 | 7.74308 | 45262 ft | 504 kts | 43° |
| 2026-04-24 11:08 | 54.09538 | 7.82852 | 45260 ft | 504 kts | 43° |
| 2026-04-24 11:08 | 54.14448 | 7.91407 | 45249 ft | 505 kts | 43° |
| 2026-04-24 11:09 | 54.19322 | 7.99926 | 45244 ft | 505 kts | 43° |
| 2026-04-24 11:09 | 54.24221 | 8.08521 | 45241 ft | 505 kts | 43° |
| 2026-04-24 11:10 | 54.29099 | 8.17112 | 45221 ft | 504 kts | 44° |
| 2026-04-24 11:10 | 54.33974 | 8.25724 | 45213 ft | 504 kts | 44° |
| 2026-04-24 11:11 | 54.38842 | 8.34360 | 45209 ft | 504 kts | 43° |
| 2026-04-24 11:11 | 54.43674 | 8.42960 | 45205 ft | 502 kts | 44° |
| 2026-04-24 11:12 | 54.48501 | 8.51586 | 45085 ft | 491 kts | 44° |
| 2026-04-24 11:12 | 54.50833 | 8.55770 | 44528 ft | 479 kts | 44° |
| 2026-04-24 11:12 | 54.53116 | 8.59865 | 43906 ft | 469 kts | 43° |
| 2026-04-24 11:13 | 54.55348 | 8.63874 | 43293 ft | 460 kts | 44° |
| 2026-04-24 11:13 | 54.57551 | 8.67838 | 42718 ft | 456 kts | 43° |
| 2026-04-24 11:13 | 54.59741 | 8.71790 | 42168 ft | 456 kts | 43° |
| 2026-04-24 11:13 | 54.61944 | 8.75766 | 41646 ft | 462 kts | 43° |
| 2026-04-24 11:14 | 54.64147 | 8.79750 | 41151 ft | 467 kts | 43° |
| 2026-04-24 11:14 | 54.66399 | 8.83835 | 40662 ft | 471 kts | 43° |
| 2026-04-24 11:14 | 54.68658 | 8.87939 | 40188 ft | 473 kts | 43° |
| 2026-04-24 11:14 | 54.70923 | 8.92071 | 39715 ft | 474 kts | 43° |
| 2026-04-24 11:15 | 54.72990 | 8.96566 | 39211 ft | 481 kts | 52° |
| 2026-04-24 11:15 | 54.74737 | 9.01537 | 38741 ft | 485 kts | 57° |
| 2026-04-24 11:15 | 54.76354 | 9.06670 | 38190 ft | 487 kts | 58° |
| 2026-04-24 11:15 | 54.78009 | 9.11805 | 37650 ft | 488 kts | 56° |
| 2026-04-24 11:16 | 54.79746 | 9.16842 | 37108 ft | 488 kts | 55° |
| 2026-04-24 11:16 | 54.81485 | 9.21914 | 36580 ft | 490 kts | 56° |
| 2026-04-24 11:16 | 54.83147 | 9.27000 | 36085 ft | 492 kts | 57° |
| 2026-04-24 11:16 | 54.84820 | 9.32164 | 35590 ft | 492 kts | 56° |
| 2026-04-24 11:17 | 54.86535 | 9.37311 | 35104 ft | 493 kts | 56° |
| 2026-04-24 11:17 | 54.88263 | 9.42460 | 34620 ft | 494 kts | 56° |
| 2026-04-24 11:17 | 54.89970 | 9.47649 | 34171 ft | 495 kts | 57° |
| 2026-04-24 11:17 | 54.91665 | 9.52863 | 33639 ft | 495 kts | 56° |
| 2026-04-24 11:18 | 54.93372 | 9.58071 | 33112 ft | 496 kts | 56° |
| 2026-04-24 11:18 | 54.95089 | 9.63277 | 32591 ft | 497 kts | 56° |
| 2026-04-24 11:18 | 54.96797 | 9.68496 | 32079 ft | 498 kts | 56° |
| 2026-04-24 11:18 | 54.98501 | 9.73749 | 31576 ft | 498 kts | 56° |
| 2026-04-24 11:19 | 55.00184 | 9.78933 | 31095 ft | 499 kts | 56° |
| 2026-04-24 11:19 | 55.01901 | 9.84208 | 30607 ft | 501 kts | 56° |
| 2026-04-24 11:19 | 55.03606 | 9.89470 | 30122 ft | 496 kts | 56° |
| 2026-04-24 11:19 | 55.05166 | 9.94792 | 29494 ft | 493 kts | 65° |
| 2026-04-24 11:20 | 55.06166 | 10.00396 | 29128 ft | 473 kts | 70° |
| 2026-04-24 11:20 | 55.07094 | 10.05945 | 29140 ft | 479 kts | 70° |
| 2026-04-24 11:20 | 55.08984 | 10.17088 | 29137 ft | 480 kts | 70° |
| 2026-04-24 11:21 | 55.09927 | 10.22704 | 28591 ft | 483 kts | 70° |
| 2026-04-24 11:21 | 55.10853 | 10.28287 | 27790 ft | 474 kts | 70° |
| 2026-04-24 11:21 | 55.11751 | 10.33697 | 26986 ft | 466 kts | 70° |
| 2026-04-24 11:21 | 55.12653 | 10.39098 | 26092 ft | 459 kts | 70° |
| 2026-04-24 11:22 | 55.13536 | 10.44415 | 25239 ft | 451 kts | 70° |
| 2026-04-24 11:22 | 55.14397 | 10.49641 | 24410 ft | 444 kts | 70° |
| 2026-04-24 11:22 | 55.15246 | 10.54802 | 23585 ft | 438 kts | 70° |
| 2026-04-24 11:22 | 55.16082 | 10.59887 | 22633 ft | 431 kts | 70° |
| 2026-04-24 11:23 | 55.16899 | 10.64875 | 21714 ft | 422 kts | 70° |
| 2026-04-24 11:23 | 55.17696 | 10.69763 | 20826 ft | 413 kts | 70° |
| 2026-04-24 11:23 | 55.18465 | 10.74488 | 19976 ft | 405 kts | 70° |
| 2026-04-24 11:23 | 55.19228 | 10.79186 | 19136 ft | 397 kts | 70° |
| 2026-04-24 11:24 | 55.19974 | 10.83792 | 18305 ft | 390 kts | 70° |
| 2026-04-24 11:24 | 55.20704 | 10.88318 | 17380 ft | 383 kts | 70° |
| 2026-04-24 11:24 | 55.21422 | 10.92776 | 16483 ft | 377 kts | 70° |
| 2026-04-24 11:24 | 55.22127 | 10.97165 | 15613 ft | 372 kts | 70° |
| 2026-04-24 11:25 | 55.22820 | 11.01494 | 14768 ft | 367 kts | 70° |
| 2026-04-24 11:25 | 55.23504 | 11.05773 | 13944 ft | 362 kts | 70° |
| 2026-04-24 11:25 | 55.24177 | 11.09991 | 13055 ft | 357 kts | 70° |
| 2026-04-24 11:25 | 55.24839 | 11.14152 | 12171 ft | 352 kts | 70° |
| 2026-04-24 11:26 | 55.25490 | 11.18257 | 11306 ft | 347 kts | 70° |
| 2026-04-24 11:26 | 55.26127 | 11.22290 | 10574 ft | 337 kts | 70° |
| 2026-04-24 11:26 | 55.26720 | 11.26080 | 10351 ft | 310 kts | 70° |
| 2026-04-24 11:26 | 55.27280 | 11.29640 | 9981 ft | 297 kts | 70° |
| 2026-04-24 11:27 | 55.27822 | 11.33050 | 9606 ft | 292 kts | 69° |
| 2026-04-24 11:27 | 55.28362 | 11.36470 | 9288 ft | 290 kts | 70° |
| 2026-04-24 11:27 | 55.28894 | 11.39877 | 8973 ft | 289 kts | 70° |
| 2026-04-24 11:27 | 55.29423 | 11.43271 | 8676 ft | 288 kts | 70° |
| 2026-04-24 11:28 | 55.29946 | 11.46632 | 8475 ft | 284 kts | 70° |
| 2026-04-24 11:28 | 55.30467 | 11.49976 | 8275 ft | 285 kts | 70° |
| 2026-04-24 11:28 | 55.30989 | 11.53327 | 8077 ft | 284 kts | 70° |
| 2026-04-24 11:28 | 55.31508 | 11.56676 | 7868 ft | 283 kts | 70° |
| 2026-04-24 11:29 | 55.32022 | 11.60010 | 7672 ft | 282 kts | 70° |
| 2026-04-24 11:29 | 55.32535 | 11.63332 | 7479 ft | 282 kts | 70° |
| 2026-04-24 11:29 | 55.33041 | 11.66610 | 7283 ft | 281 kts | 70° |
| 2026-04-24 11:29 | 55.33546 | 11.69907 | 7129 ft | 278 kts | 70° |
| 2026-04-24 11:30 | 55.34050 | 11.73187 | 6929 ft | 279 kts | 70° |
| 2026-04-24 11:30 | 55.34552 | 11.76465 | 6737 ft | 277 kts | 70° |
| 2026-04-24 11:30 | 55.35051 | 11.79724 | 6546 ft | 276 kts | 71° |
| 2026-04-24 11:30 | 55.35545 | 11.82972 | 6335 ft | 274 kts | 71° |
| 2026-04-24 11:31 | 55.36036 | 11.86201 | 6123 ft | 273 kts | 71° |
| 2026-04-24 11:31 | 55.36526 | 11.89423 | 5917 ft | 272 kts | 70° |
| 2026-04-24 11:31 | 55.37004 | 11.92585 | 5716 ft | 270 kts | 70° |
| 2026-04-24 11:31 | 55.37487 | 11.95773 | 5516 ft | 270 kts | 70° |
| 2026-04-24 11:32 | 55.37969 | 11.98964 | 5321 ft | 269 kts | 70° |
| 2026-04-24 11:32 | 55.38431 | 12.02046 | 5103 ft | 257 kts | 70° |
| 2026-04-24 11:32 | 55.38897 | 12.05123 | 4896 ft | 260 kts | 70° |
| 2026-04-24 11:32 | 55.39355 | 12.08174 | 4681 ft | 256 kts | 70° |
| 2026-04-24 11:33 | 55.39809 | 12.11209 | 4450 ft | 257 kts | 70° |
| 2026-04-24 11:33 | 55.40261 | 12.14246 | 4192 ft | 255 kts | 71° |
| 2026-04-24 11:33 | 55.40700 | 12.17241 | 3937 ft | 252 kts | 71° |
| 2026-04-24 11:33 | 55.41133 | 12.20172 | 3683 ft | 247 kts | 71° |
| 2026-04-24 11:34 | 55.41553 | 12.23024 | 3416 ft | 236 kts | 71° |
| 2026-04-24 11:34 | 55.41950 | 12.25792 | 3147 ft | 231 kts | 71° |
| 2026-04-24 11:34 | 55.42343 | 12.28502 | 2997 ft | 224 kts | 71° |
| 2026-04-24 11:34 | 55.42731 | 12.31159 | 2996 ft | 221 kts | 71° |
| 2026-04-24 11:35 | 55.43116 | 12.33761 | 2992 ft | 220 kts | 71° |
| 2026-04-24 11:35 | 55.43684 | 12.36202 | 2951 ft | 213 kts | 49° |
| 2026-04-24 11:35 | 55.44712 | 12.38029 | 3004 ft | 212 kts | 37° |
| 2026-04-24 11:35 | 55.45829 | 12.39739 | 3014 ft | 214 kts | 37° |
| 2026-04-24 11:36 | 55.46939 | 12.41449 | 3010 ft | 209 kts | 37° |
| 2026-04-24 11:36 | 55.47968 | 12.43044 | 2976 ft | 190 kts | 37° |
| 2026-04-24 11:36 | 55.48948 | 12.44559 | 2736 ft | 185 kts | 36° |
| 2026-04-24 11:36 | 55.49910 | 12.46027 | 2483 ft | 180 kts | 36° |
| 2026-04-24 11:37 | 55.50846 | 12.47472 | 2248 ft | 179 kts | 36° |
| 2026-04-24 11:37 | 55.51783 | 12.48908 | 2003 ft | 178 kts | 36° |
| 2026-04-24 11:37 | 55.52679 | 12.50290 | 1757 ft | 171 kts | 36° |
| 2026-04-24 11:37 | 55.53556 | 12.51644 | 1521 ft | 156 kts | 35° |
| 2026-04-24 11:38 | 55.54310 | 12.52799 | 1324 ft | 134 kts | 34° |
| 2026-04-24 11:38 | 55.54978 | 12.53825 | 1133 ft | 122 kts | 33° |
| 2026-04-24 11:38 | 55.55619 | 12.54811 | 974 ft | 124 kts | 34° |
| 2026-04-24 11:38 | 55.56282 | 12.55833 | 807 ft | 125 kts | 37° |
| 2026-04-24 11:39 | 55.56922 | 12.56823 | 639 ft | 123 kts | 35° |
| 2026-04-24 11:39 | 55.57561 | 12.57808 | 471 ft | 121 kts | 35° |
| 2026-04-24 11:39 | 55.58196 | 12.58746 | 322 ft | 118 kts | 37° |
| 2026-04-24 11:39 | 55.58812 | 12.59707 | 184 ft | 120 kts | 38° |
| 2026-04-24 11:40 | 55.59424 | 12.60662 | 41 ft | 114 kts | 39° |
| 2026-04-24 11:40 | 55.59985 | 12.61525 | 23 ft | 95 kts | 40° |
| 2026-04-24 11:40 | 55.60426 | 12.62217 | 21 ft | 76 kts | 40° |
| 2026-04-24 11:40 | 55.60768 | 12.62742 | 23 ft | 45 kts | 41° |
| 2026-04-24 11:41 | 55.60901 | 12.62845 | 22 ft | 13 kts | 359° |
| 2026-04-24 11:41 | 55.60992 | 12.62872 | 21 ft | 13 kts | 12° |
| 2026-04-24 11:41 | 55.61079 | 12.62904 | 20 ft | 12 kts | 12° |
| 2026-04-24 11:41 | 55.61154 | 12.62957 | 22 ft | 11 kts | 37° |
| 2026-04-24 11:42 | 55.61214 | 12.63048 | 21 ft | 13 kts | 41° |
| 2026-04-24 11:42 | 55.61283 | 12.63155 | 22 ft | 13 kts | 41° |
| 2026-04-24 11:42 | 55.61350 | 12.63259 | 21 ft | 13 kts | 41° |
| 2026-04-24 11:42 | 55.61420 | 12.63366 | 21 ft | 15 kts | 41° |
| 2026-04-24 11:43 | 55.61510 | 12.63505 | 20 ft | 19 kts | 41° |
| 2026-04-24 11:43 | 55.61620 | 12.63677 | 20 ft | 23 kts | 41° |
| 2026-04-24 11:43 | 55.61749 | 12.63879 | 21 ft | 26 kts | 41° |
| 2026-04-24 11:43 | 55.61888 | 12.64084 | 22 ft | 24 kts | 28° |
| 2026-04-24 11:44 | 55.62053 | 12.64220 | 20 ft | 28 kts | 25° |
| 2026-04-24 11:44 | 55.62198 | 12.64343 | 18 ft | 16 kts | 26° |
| 2026-04-24 11:44 | 55.62260 | 12.64342 | 18 ft | 7 kts | 305° |
| 2026-04-24 11:44 | 55.62280 | 12.64215 | 17 ft | 15 kts | 269° |
| 2026-04-24 11:45 | 55.62279 | 12.64037 | 19 ft | 13 kts | 269° |
| 2026-04-24 11:45 | 55.62276 | 12.63883 | 20 ft | 12 kts | 269° |
| 2026-04-24 11:45 | 55.62275 | 12.63735 | 20 ft | 12 kts | 269° |
| 2026-04-24 11:45 | 55.62274 | 12.63590 | 20 ft | 12 kts | 269° |
| 2026-04-24 11:46 | 55.62272 | 12.63448 | 22 ft | 11 kts | 268° |
| 2026-04-24 11:46 | 55.62270 | 12.63308 | 20 ft | 11 kts | 268° |
| 2026-04-24 11:46 | 55.62271 | 12.63171 | 20 ft | 11 kts | 278° |
| 2026-04-24 11:46 | 55.62311 | 12.63064 | 22 ft | 10 kts | 305° |
| 2026-04-24 11:47 | 55.62284 | 12.62990 | 20 ft | 7 kts | 193° |
| 2026-04-24 11:47 | 55.62236 | 12.62967 | 20 ft | 6 kts | 197° |
| 2026-04-24 11:47 | 55.62204 | 12.62949 | 22 ft | 0 kts | 199° |